Time;durP1;ratioP1;P1;durP2;ratioP2;P2;SDS_P1;SDS_P2;PMS_P1;PMS_P2;Temp;Humidity;BMP_temperature;BMP_pressure;BME280_temperature;BME280_humidity;BME280_pressure;Samples;Min_cycle;Max_cycle;Signal;HPM_P1;HPM_P2
2023/10/11 00:01:46;;;;;;;16.40;5.03;;;;;;;;;;4988992;28;20022;-67
2023/10/11 00:04:23;;;;;;;17.63;4.60;;;;;;;;;;4988024;28;20064;-67
2023/10/11 00:06:54;;;;;;;11.07;4.28;;;;;;;;;;4980658;28;20072;-67
2023/10/11 00:09:28;;;;;;;11.18;4.80;;;;;;;;;;4993302;28;20616;-67
2023/10/11 00:11:56;;;;;;;12.90;4.68;;;;;;;;;;4989900;28;20021;-66
2023/10/11 00:14:21;;;;;;;10.68;4.45;;;;;;;;;;4995486;28;20018;-68
2023/10/11 00:16:52;;;;;;;13.00;4.93;;;;;;;;;;4989495;28;20041;-68
2023/10/11 00:19:18;;;;;;;12.70;4.18;;;;;;;;;;4991607;28;20022;-66
2023/10/11 00:21:43;;;;;;;15.70;4.32;;;;;;;;;;4992444;28;20452;-68
2023/10/11 00:24:09;;;;;;;13.25;4.88;;;;;;;;;;4990308;28;20135;-67
2023/10/11 00:26:34;;;;;;;11.18;3.90;;;;;;;;;;4987973;28;20177;-67
2023/10/11 00:29:00;;;;;;;10.68;4.15;;;;;;;;;;4995595;28;20026;-67
2023/10/11 00:31:25;;;;;;;10.57;4.55;;;;;;;;;;4992740;28;20105;-67
2023/10/11 00:33:53;;;;;;;11.82;4.18;;;;;;;;;;4999289;28;20150;-67
2023/10/11 00:36:29;;;;;;;22.08;5.00;;;;;;;;;;4997098;28;20068;-66
2023/10/11 00:38:54;;;;;;;17.70;5.97;;;;;;;;;;4993797;28;20077;-67
2023/10/11 00:41:20;;;;;;;13.63;4.35;;;;;;;;;;4997322;28;20099;-66
2023/10/11 00:43:47;;;;;;;12.35;4.65;;;;;;;;;;4995634;28;20022;-68
2023/10/11 00:46:14;;;;;;;11.75;3.88;;;;;;;;;;4999088;28;20030;-68
2023/10/11 00:48:51;;;;;;;12.32;4.50;;;;;;;;;;4997055;28;20018;-69
2023/10/11 00:51:17;;;;;;;13.88;4.30;;;;;;;;;;5002370;28;20036;-67
2023/10/11 00:53:42;;;;;;;14.77;4.80;;;;;;;;;;4998797;28;20101;-67
2023/10/11 00:56:10;;;;;;;11.98;4.18;;;;;;;;;;4994805;28;20014;-66
2023/10/11 00:58:38;;;;;;;11.63;4.00;;;;;;;;;;5000182;28;20018;-67
2023/10/11 01:01:03;;;;;;;13.70;5.13;;;;;;;;;;4979200;28;20030;-64
2023/10/11 01:03:33;;;;;;;12.00;4.13;;;;;;;;;;4993641;28;20022;-68
2023/10/11 01:06:01;;;;;;;16.42;4.80;;;;;;;;;;4997060;28;20040;-67
2023/10/11 01:08:48;;;;;;;16.27;4.85;;;;;;;;;;4995714;28;20625;-68
2023/10/11 01:11:13;;;;;;;8.55;3.83;;;;;;;;;;4992847;28;20030;-68
2023/10/11 01:13:42;;;;;;;13.07;4.50;;;;;;;;;;4995167;28;20394;-67
2023/10/11 01:16:11;;;;;;;11.98;4.57;;;;;;;;;;4996265;28;20637;-69
2023/10/11 01:18:37;;;;;;;12.55;5.07;;;;;;;;;;4994136;28;20036;-70
2023/10/11 01:21:03;;;;;;;17.20;4.45;;;;;;;;;;4997254;28;20034;-64
2023/10/11 01:23:28;;;;;;;11.65;4.63;;;;;;;;;;5011781;23;20498;-64
2023/10/11 01:25:55;;;;;;;12.85;4.72;;;;;;;;;;4994194;28;20010;-62
2023/10/11 01:28:20;;;;;;;18.67;5.35;;;;;;;;;;4991012;28;20041;-63
2023/10/11 01:30:47;;;;;;;12.18;4.50;;;;;;;;;;4995659;28;20019;-65
2023/10/11 01:33:12;;;;;;;13.57;4.40;;;;;;;;;;4985412;28;20018;-65
2023/10/11 01:35:38;;;;;;;11.80;4.13;;;;;;;;;;4976583;28;20497;-65
2023/10/11 01:38:05;;;;;;;16.38;4.57;;;;;;;;;;4973528;28;20027;-62
2023/10/11 01:40:32;;;;;;;20.48;4.68;;;;;;;;;;4977331;28;20362;-65
2023/10/11 01:42:58;;;;;;;13.40;5.20;;;;;;;;;;4973216;28;20018;-67
2023/10/11 01:45:23;;;;;;;17.05;5.18;;;;;;;;;;4979232;28;20026;-66
2023/10/11 01:47:50;;;;;;;21.38;5.47;;;;;;;;;;4974006;28;20073;-67
2023/10/11 01:50:16;;;;;;;15.52;5.30;;;;;;;;;;4977203;28;20029;-66
2023/10/11 01:52:42;;;;;;;10.73;4.75;;;;;;;;;;4974577;28;20011;-63
2023/10/11 01:55:10;;;;;;;15.77;5.40;;;;;;;;;;4976898;28;20430;-66
2023/10/11 01:57:40;;;;;;;14.50;5.05;;;;;;;;;;4975703;28;20101;-66
2023/10/11 02:00:13;;;;;;;15.57;4.70;;;;;;;;;;4961026;28;20157;-66
2023/10/11 02:02:44;;;;;;;15.50;5.32;;;;;;;;;;4977653;28;20105;-64
2023/10/11 02:05:11;;;;;;;12.45;4.90;;;;;;;;;;4977653;28;20498;-65
2023/10/11 02:07:36;;;;;;;14.02;5.07;;;;;;;;;;4977512;28;20033;-62
2023/10/11 02:10:03;;;;;;;11.25;5.00;;;;;;;;;;4975724;28;20023;-66
2023/10/11 02:12:28;;;;;;;15.02;4.65;;;;;;;;;;4975207;28;20037;-66
2023/10/11 02:14:53;;;;;;;12.27;5.20;;;;;;;;;;4974496;28;20019;-65
2023/10/11 02:17:23;;;;;;;14.23;5.00;;;;;;;;;;4980851;28;20019;-64
2023/10/11 02:19:49;;;;;;;18.35;5.32;;;;;;;;;;4976538;28;20093;-65
2023/10/11 02:22:18;;;;;;;15.10;5.65;;;;;;;;;;4972192;28;20438;-63
2023/10/11 02:24:44;;;;;;;12.82;5.88;;;;;;;;;;4974425;28;20506;-66
2023/10/11 02:27:17;;;;;;;16.88;6.07;;;;;;;;;;4953225;28;20030;-65
2023/10/11 02:29:42;;;;;;;13.05;5.85;;;;;;;;;;4971663;28;20019;-66
2023/10/11 02:32:08;;;;;;;11.77;5.18;;;;;;;;;;4975217;28;20437;-63
2023/10/11 02:34:35;;;;;;;14.55;5.25;;;;;;;;;;4969659;28;20029;-64
2023/10/11 02:37:10;;;;;;;14.43;5.75;;;;;;;;;;4978515;28;20018;-64
2023/10/11 02:39:42;;;;;;;14.07;5.78;;;;;;;;;;4971038;28;20023;-64
2023/10/11 02:42:07;;;;;;;14.52;5.38;;;;;;;;;;4967404;28;20026;-62
2023/10/11 02:44:32;;;;;;;20.13;5.05;;;;;;;;;;4970656;28;20018;-62
2023/10/11 02:46:58;;;;;;;10.18;4.50;;;;;;;;;;4977271;28;20019;-64
2023/10/11 02:49:24;;;;;;;14.95;5.18;;;;;;;;;;4972731;28;20031;-62
2023/10/11 02:51:52;;;;;;;15.95;4.35;;;;;;;;;;4979543;28;20438;-62
2023/10/11 02:54:18;;;;;;;;;;;;;;;;;;4971138;28;20033;-64
2023/10/11 02:56:49;;;;;;;15.18;4.88;;;;;;;;;;4972569;28;19906;-65
2023/10/11 02:59:19;;;;;;;13.73;4.55;;;;;;;;;;4977767;28;20054;-63
2023/10/11 03:01:59;;;;;;;13.55;4.68;;;;;;;;;;4973989;28;20061;-64
2023/10/11 03:04:27;;;;;;;14.77;5.25;;;;;;;;;;4977307;28;20034;-63
2023/10/11 03:06:53;;;;;;;17.63;5.97;;;;;;;;;;4975669;28;20022;-62
2023/10/11 03:09:18;;;;;;;15.88;4.95;;;;;;;;;;4976922;28;20041;-64
2023/10/11 03:11:45;;;;;;;17.63;5.32;;;;;;;;;;4974462;28;20383;-64
2023/10/11 03:14:12;;;;;;;11.75;4.47;;;;;;;;;;4974050;28;20367;-62
2023/10/11 03:16:42;;;;;;;16.92;5.00;;;;;;;;;;4975929;28;20467;-66
2023/10/11 03:19:07;;;;;;;15.07;5.20;;;;;;;;;;4975228;28;20022;-65
2023/10/11 03:21:35;;;;;;;19.52;5.00;;;;;;;;;;4954911;28;20031;-66
2023/10/11 03:24:05;;;;;;;12.57;4.97;;;;;;;;;;4976435;28;20116;-63
2023/10/11 03:28:58;;;;;;;16.20;5.32;;;;;;;;;;4977053;28;20023;-65
2023/10/11 03:31:30;;;;;;;16.63;4.40;;;;;;;;;;4972725;28;20022;-64
2023/10/11 03:33:57;;;;;;;14.45;5.15;;;;;;;;;;4967180;28;20390;-66
2023/10/11 03:36:30;;;;;;;18.27;5.57;;;;;;;;;;4980440;28;20022;-59
2023/10/11 03:38:57;;;;;;;12.88;4.80;;;;;;;;;;4972936;28;20530;-63
2023/10/11 03:41:28;;;;;;;15.95;5.15;;;;;;;;;;4973941;28;20157;-64
2023/10/11 03:43:54;;;;;;;14.65;5.82;;;;;;;;;;4971962;28;20019;-65
2023/10/11 03:46:24;;;;;;;10.57;4.20;;;;;;;;;;4971739;28;20031;-65
2023/10/11 03:48:56;;;;;;;11.88;4.45;;;;;;;;;;4973523;28;20043;-66
2023/10/11 03:51:21;;;;;;;11.90;5.03;;;;;;;;;;4970992;28;20030;-65
2023/10/11 03:53:47;;;;;;;14.18;4.82;;;;;;;;;;4976585;28;20018;-63
2023/10/11 03:56:13;;;;;;;14.60;4.60;;;;;;;;;;4973041;28;20082;-65
2023/10/11 03:58:38;;;;;;;14.75;4.40;;;;;;;;;;4974140;28;20042;-64
2023/10/11 04:03:35;;;;;;;12.80;4.60;;;;;;;;;;4975528;28;20026;-65
2023/10/11 04:06:00;;;;;;;14.83;5.03;;;;;;;;;;4973294;28;20019;-65
2023/10/11 04:08:26;;;;;;;14.48;5.05;;;;;;;;;;4976739;28;20018;-64
2023/10/11 04:10:53;;;;;;;11.48;4.90;;;;;;;;;;4976773;28;20018;-65
2023/10/11 04:13:25;;;;;;;19.13;4.60;;;;;;;;;;4977301;28;20037;-65
2023/10/11 04:15:50;;;;;;;12.93;4.85;;;;;;;;;;4977153;28;20094;-65
2023/10/11 04:18:20;;;;;;;19.38;5.15;;;;;;;;;;4977323;28;20105;-64
2023/10/11 04:20:59;;;;;;;11.20;4.88;;;;;;;;;;4977982;28;20446;-64
2023/10/11 04:23:27;;;;;;;;;;;;;;;;;;4980556;28;20121;-65
2023/10/11 04:25:55;;;;;;;24.85;5.57;;;;;;;;;;4972144;28;19910;-65
2023/10/11 04:28:23;;;;;;;13.18;4.68;;;;;;;;;;4973779;28;20031;-64
2023/10/11 04:30:51;;;;;;;16.65;4.90;;;;;;;;;;4956001;28;20023;-66
2023/10/11 04:33:23;;;;;;;;;;;;;;;;;;4973094;28;20026;-66
2023/10/11 04:36:02;;;;;;;23.90;5.40;;;;;;;;;;4970986;28;19906;-66
2023/10/11 04:38:30;;;;;;;14.85;5.40;;;;;;;;;;4972979;28;20023;-65
2023/10/11 04:41:01;;;;;;;16.00;4.63;;;;;;;;;;4972513;28;20439;-64
2023/10/11 04:43:29;;;;;;;21.23;5.45;;;;;;;;;;4973807;28;20245;-65
2023/10/11 04:45:55;;;;;;;17.58;4.97;;;;;;;;;;4971880;28;20026;-65
2023/10/11 04:48:33;;;;;;;15.80;5.15;;;;;;;;;;4957955;28;20050;-65
2023/10/11 04:53:58;;;;;;;13.73;5.38;;;;;;;;;;4973372;28;20097;-65
2023/10/11 04:59:16;;;;;;;14.35;4.13;;;;;;;;;;4969061;28;20058;-65
2023/10/11 05:04:26;;;;;;;18.58;4.90;;;;;;;;;;4980152;28;20027;-64
2023/10/11 05:06:53;;;;;;;;;;;;;;;;;;4977281;28;20025;-65
2023/10/11 05:11:44;;;;;;;15.90;5.78;;;;;;;;;;4978003;28;20038;-65
2023/10/11 05:14:36;;;;;;;22.55;5.72;;;;;;;;;;4974242;28;20027;-66
2023/10/11 05:19:44;;;;;;;15.77;5.97;;;;;;;;;;4969460;28;20479;-65
2023/10/11 05:22:16;;;;;;;20.02;5.15;;;;;;;;;;4970548;28;20031;-66
2023/10/11 05:25:12;;;;;;;17.58;5.35;;;;;;;;;;4973199;28;20162;-63
2023/10/11 05:32:32;;;;;;;20.42;5.57;;;;;;;;;;4971545;28;20555;-68
2023/10/11 05:35:19;;;;;;;16.67;4.93;;;;;;;;;;4965708;28;20031;-64
2023/10/11 05:51:27;;;;;;;14.90;4.97;;;;;;;;;;4968956;28;20045;-65
2023/10/11 05:53:56;;;;;;;18.45;4.40;;;;;;;;;;4964186;28;20379;-65
2023/10/11 05:56:22;;;;;;;13.48;4.55;;;;;;;;;;4970432;28;20181;-64
2023/10/11 05:58:51;;;;;;;17.25;4.85;;;;;;;;;;4972034;28;20022;-66
2023/10/11 06:01:17;;;;;;;16.85;5.18;;;;;;;;;;4977569;28;20026;-67
2023/10/11 06:03:43;;;;;;;18.42;5.05;;;;;;;;;;4971432;28;20443;-65
2023/10/11 06:06:23;;;;;;;15.10;4.30;;;;;;;;;;4978229;28;20022;-66
2023/10/11 06:08:50;;;;;;;17.35;4.68;;;;;;;;;;4964470;28;20093;-66
2023/10/11 06:11:15;;;;;;;15.32;5.07;;;;;;;;;;4969613;28;20102;-65
2023/10/11 06:13:43;;;;;;;19.02;5.20;;;;;;;;;;4977566;28;20321;-65
2023/10/11 06:16:13;;;;;;;11.77;4.70;;;;;;;;;;4971822;28;20023;-63
2023/10/11 06:18:55;;;;;;;13.20;4.32;;;;;;;;;;4969921;28;20026;-65
2023/10/11 06:21:33;;;;;;;14.32;4.68;;;;;;;;;;4958877;28;20484;-65
2023/10/11 06:24:04;;;;;;;11.15;3.85;;;;;;;;;;4968578;28;20037;-62
2023/10/11 06:26:52;;;;;;;13.43;4.10;;;;;;;;;;4967529;28;20402;-63
2023/10/11 06:29:17;;;;;;;11.43;4.68;;;;;;;;;;4973832;28;20034;-64
2023/10/11 06:31:46;;;;;;;14.45;4.80;;;;;;;;;;4971063;28;20043;-64
2023/10/11 06:34:32;;;;;;;13.45;4.70;;;;;;;;;;4952642;28;20031;-65
2023/10/11 06:36:57;;;;;;;13.32;4.95;;;;;;;;;;4970182;28;20114;-64
2023/10/11 06:42:18;;;;;;;16.88;4.22;;;;;;;;;;4972872;28;20038;-65
2023/10/11 06:44:47;;;;;;;12.15;5.38;;;;;;;;;;4970631;28;20069;-66
2023/10/11 06:47:12;;;;;;;22.60;5.22;;;;;;;;;;4973000;28;20112;-64
2023/10/11 06:49:44;;;;;;;14.93;5.35;;;;;;;;;;4970960;28;20474;-66
2023/10/11 06:52:11;;;;;;;11.15;4.07;;;;;;;;;;4976781;28;20500;-66
2023/10/11 06:54:45;;;;;;;14.80;4.40;;;;;;;;;;4971113;28;20109;-67
2023/10/11 06:57:12;;;;;;;14.93;4.75;;;;;;;;;;4974481;28;20019;-66
2023/10/11 06:59:41;;;;;;;11.38;3.97;;;;;;;;;;4970365;28;20171;-65
2023/10/11 07:02:17;;;;;;;14.38;5.20;;;;;;;;;;4975887;28;20104;-66
2023/10/11 07:04:50;;;;;;;17.33;4.82;;;;;;;;;;4972547;28;20029;-65
2023/10/11 07:07:16;;;;;;;17.80;4.43;;;;;;;;;;4971816;28;20106;-66
2023/10/11 07:09:56;;;;;;;14.88;4.30;;;;;;;;;;4957618;28;20027;-67
2023/10/11 07:12:29;;;;;;;15.70;5.35;;;;;;;;;;4969979;28;20105;-66
2023/10/11 07:14:57;;;;;;;17.27;4.78;;;;;;;;;;4969988;28;20406;-66
2023/10/11 07:17:23;;;;;;;11.80;4.30;;;;;;;;;;4974048;28;20019;-65
2023/10/11 07:19:51;;;;;;;12.48;4.65;;;;;;;;;;4973725;28;20054;-66
2023/10/11 07:22:26;;;;;;;17.55;4.65;;;;;;;;;;4966818;28;20023;-65
2023/10/11 07:24:59;;;;;;;17.65;5.05;;;;;;;;;;4969923;28;20053;-65
2023/10/11 07:27:37;;;;;;;17.77;4.63;;;;;;;;;;4968649;28;20031;-66
2023/10/11 07:30:06;;;;;;;17.40;4.50;;;;;;;;;;4974028;28;20426;-65
2023/10/11 07:32:31;;;;;;;;;;;;;;;;;;4971009;28;20085;-62
2023/10/11 07:34:56;;;;;;;16.35;4.22;;;;;;;;;;4973657;28;19910;-70
2023/10/11 07:37:26;;;;;;;13.98;4.18;;;;;;;;;;4967693;28;20023;-66
2023/10/11 07:39:59;;;;;;;15.02;4.90;;;;;;;;;;4972895;28;20033;-64
2023/10/11 07:42:36;;;;;;;18.17;3.92;;;;;;;;;;4969047;28;20042;-63
2023/10/11 07:45:07;;;;;;;12.85;4.50;;;;;;;;;;4975773;28;20023;-66
2023/10/11 07:47:33;;;;;;;17.27;5.18;;;;;;;;;;4967397;28;20119;-67
2023/10/11 07:49:58;;;;;;;16.10;5.07;;;;;;;;;;4963941;28;20097;-66
2023/10/11 07:52:24;;;;;;;15.13;5.07;;;;;;;;;;4972474;28;20045;-66
2023/10/11 07:54:51;;;;;;;17.42;5.10;;;;;;;;;;4965457;28;20621;-66
2023/10/11 07:57:17;;;;;;;10.10;4.23;;;;;;;;;;4970017;28;20640;-64
2023/10/11 07:59:43;;;;;;;15.80;4.50;;;;;;;;;;4969925;28;20011;-65
2023/10/11 08:02:09;;;;;;;12.35;4.63;;;;;;;;;;4969796;28;20054;-66
2023/10/11 08:04:44;;;;;;;11.55;3.85;;;;;;;;;;4976394;28;20053;-65
2023/10/11 08:07:12;;;;;;;15.20;4.50;;;;;;;;;;4971132;28;20026;-65
2023/10/11 08:09:47;;;;;;;16.15;4.60;;;;;;;;;;4964230;28;20019;-66
2023/10/11 08:12:14;;;;;;;12.82;4.50;;;;;;;;;;4952640;28;20030;-66
2023/10/11 08:14:45;;;;;;;17.73;4.25;;;;;;;;;;4967347;28;20041;-64
2023/10/11 08:17:11;;;;;;;14.35;4.78;;;;;;;;;;4974389;28;20022;-63
2023/10/11 08:19:37;;;;;;;11.63;4.35;;;;;;;;;;4970347;28;20110;-65
2023/10/11 08:22:09;;;;;;;13.20;4.33;;;;;;;;;;4973889;28;20170;-67
2023/10/11 08:24:45;;;;;;;13.20;4.53;;;;;;;;;;4969411;28;20779;-66
2023/10/11 08:27:11;;;;;;;19.10;5.38;;;;;;;;;;4965945;28;20019;-65
2023/10/11 08:29:37;;;;;;;11.48;3.85;;;;;;;;;;4969520;28;20019;-66
2023/10/11 08:32:06;;;;;;;15.88;4.65;;;;;;;;;;4968891;28;20014;-64
2023/10/11 08:34:32;;;;;;;17.40;3.85;;;;;;;;;;4966140;28;20110;-65
2023/10/11 08:36:57;;;;;;;12.18;3.90;;;;;;;;;;4963669;28;20018;-65
2023/10/11 08:39:27;;;;;;;15.57;4.30;;;;;;;;;;4969857;28;22065;-64
2023/10/11 08:41:55;;;;;;;18.02;5.38;;;;;;;;;;4967200;28;20630;-66
2023/10/11 08:44:26;;;;;;;17.05;5.28;;;;;;;;;;4971390;28;20045;-64
2023/10/11 08:46:52;;;;;;;18.02;5.70;;;;;;;;;;4968983;28;20026;-66
2023/10/11 08:49:17;;;;;;;12.65;4.28;;;;;;;;;;4963521;28;20027;-66
2023/10/11 08:51:43;;;;;;;12.07;4.95;;;;;;;;;;4969231;28;20022;-65
2023/10/11 08:54:11;;;;;;;14.20;4.47;;;;;;;;;;4969481;28;20011;-66
2023/10/11 08:56:39;;;;;;;16.35;4.85;;;;;;;;;;4972848;28;20019;-64
2023/10/11 08:59:05;;;;;;;13.77;4.03;;;;;;;;;;4972835;28;20433;-65
2023/10/11 09:01:36;;;;;;;15.15;4.57;;;;;;;;;;4969269;28;20102;-66
2023/10/11 09:04:11;;;;;;;14.32;4.20;;;;;;;;;;4962580;28;21237;-66
2023/10/11 09:06:40;;;;;;;18.90;4.70;;;;;;;;;;4970961;28;20023;-63
2023/10/11 09:09:05;;;;;;;11.90;4.93;;;;;;;;;;4978162;28;20054;-67
2023/10/11 09:11:32;;;;;;;12.48;4.78;;;;;;;;;;4975702;28;20031;-67
2023/10/11 09:14:08;;;;;;;16.45;4.43;;;;;;;;;;4979136;28;20462;-67
2023/10/11 09:16:37;;;;;;;18.00;4.72;;;;;;;;;;4970101;28;20081;-67
2023/10/11 09:19:05;;;;;;;17.55;4.55;;;;;;;;;;4971832;28;20422;-66
2023/10/11 09:21:34;;;;;;;16.02;4.65;;;;;;;;;;4971485;28;20034;-65
2023/10/11 09:24:00;;;;;;;13.93;4.35;;;;;;;;;;4969238;28;20529;-66
2023/10/11 09:26:33;;;;;;;16.15;4.70;;;;;;;;;;4970397;28;20050;-67
2023/10/11 09:29:07;;;;;;;20.17;4.80;;;;;;;;;;4967714;28;20030;-66
2023/10/11 09:31:32;;;;;;;19.50;4.47;;;;;;;;;;4971634;28;20015;-67
2023/10/11 09:34:05;;;;;;;16.00;4.32;;;;;;;;;;4971622;28;20478;-67
2023/10/11 09:36:31;;;;;;;10.70;3.97;;;;;;;;;;4970408;28;20023;-66
2023/10/11 09:38:57;;;;;;;16.17;4.07;;;;;;;;;;4972441;28;20037;-67
2023/10/11 09:41:22;;;;;;;16.30;3.72;;;;;;;;;;4978516;28;20498;-64
2023/10/11 09:43:48;;;;;;;10.95;4.15;;;;;;;;;;4971296;28;20041;-67
2023/10/11 09:46:13;;;;;;;15.07;4.22;;;;;;;;;;4970294;28;20047;-66
2023/10/11 09:48:40;;;;;;;12.25;4.05;;;;;;;;;;4971832;28;20023;-66
2023/10/11 09:51:08;;;;;;;14.55;4.15;;;;;;;;;;4975682;28;20470;-65
2023/10/11 09:53:35;;;;;;;16.23;3.95;;;;;;;;;;4972418;28;20105;-68
2023/10/11 09:56:05;;;;;;;16.53;3.97;;;;;;;;;;4966203;28;20537;-67
2023/10/11 09:58:34;;;;;;;12.50;3.97;;;;;;;;;;4970471;28;20315;-65
2023/10/11 10:01:08;;;;;;;10.48;4.20;;;;;;;;;;4948666;28;20110;-67
2023/10/11 10:03:38;;;;;;;14.77;4.00;;;;;;;;;;4969826;28;20046;-66
2023/10/11 10:06:22;;;;;;;18.17;4.07;;;;;;;;;;4966763;28;20154;-66
2023/10/11 10:12:21;;;;;;;21.17;3.95;;;;;;;;;;4969075;28;20081;-67
2023/10/11 10:14:50;;;;;;;11.00;3.55;;;;;;;;;;4905598;28;20109;-65
2023/10/11 10:17:16;;;;;;;13.77;3.42;;;;;;;;;;4981487;28;20034;-66
2023/10/11 10:19:45;;;;;;;12.73;3.90;;;;;;;;;;4974833;28;20048;-67
2023/10/11 10:22:11;;;;;;;14.90;3.85;;;;;;;;;;4974587;28;20027;-68
2023/10/11 10:24:36;;;;;;;13.27;3.50;;;;;;;;;;4971037;28;20054;-66
2023/10/11 10:27:20;;;;;;;21.58;4.57;;;;;;;;;;4970919;28;20439;-67
2023/10/11 10:29:58;;;;;;;10.75;3.90;;;;;;;;;;4971366;28;20034;-65
2023/10/11 10:32:23;;;;;;;11.82;4.10;;;;;;;;;;4952981;28;20023;-65
2023/10/11 10:34:48;;;;;;;12.60;4.55;;;;;;;;;;4969885;28;20022;-65
2023/10/11 10:37:34;;;;;;;12.85;4.03;;;;;;;;;;4971058;28;20098;-67
2023/10/11 10:40:18;;;;;;;19.23;4.50;;;;;;;;;;4966624;28;20027;-66
2023/10/11 10:43:02;;;;;;;11.20;4.15;;;;;;;;;;4968488;28;20033;-66
2023/10/11 10:45:28;;;;;;;14.63;3.92;;;;;;;;;;4971124;28;20054;-67
2023/10/11 10:48:10;;;;;;;14.48;4.03;;;;;;;;;;4974820;28;20026;-66
2023/10/11 10:51:04;;;;;;;11.10;3.65;;;;;;;;;;4967893;28;20033;-66
2023/10/11 10:54:03;;;;;;;12.20;4.47;;;;;;;;;;4964890;28;20030;-67
2023/10/11 10:56:29;;;;;;;15.70;4.10;;;;;;;;;;4967431;28;20022;-66
2023/10/11 10:59:04;;;;;;;14.40;4.25;;;;;;;;;;4968293;28;20496;-67
2023/10/11 11:01:33;;;;;;;18.35;4.20;;;;;;;;;;4968448;28;20106;-66
2023/10/11 11:03:59;;;;;;;12.70;4.07;;;;;;;;;;4968062;28;20118;-66
2023/10/11 11:06:25;;;;;;;15.30;3.80;;;;;;;;;;4969264;28;20118;-66
2023/10/11 11:08:50;;;;;;;12.90;3.70;;;;;;;;;;4967496;28;20018;-66
2023/10/11 11:11:19;;;;;;;15.85;4.35;;;;;;;;;;4971408;28;20054;-66
2023/10/11 11:13:47;;;;;;;13.68;3.50;;;;;;;;;;4970280;28;20011;-66
2023/10/11 11:16:20;;;;;;;14.93;3.85;;;;;;;;;;4969155;28;20061;-66
2023/10/11 11:18:45;;;;;;;12.05;3.65;;;;;;;;;;4969317;28;20101;-67
2023/10/11 11:21:21;;;;;;;11.90;4.20;;;;;;;;;;4964303;28;20035;-65
2023/10/11 11:23:49;;;;;;;10.00;3.58;;;;;;;;;;4965328;28;20023;-67
2023/10/11 11:26:17;;;;;;;16.95;3.83;;;;;;;;;;4968424;28;20027;-67
2023/10/11 11:28:45;;;;;;;11.98;4.07;;;;;;;;;;4969920;28;20030;-66
2023/10/11 11:31:13;;;;;;;15.57;3.92;;;;;;;;;;4965336;28;20042;-63
2023/10/11 11:33:48;;;;;;;15.18;3.78;;;;;;;;;;4968007;28;20026;-66
2023/10/11 11:36:31;;;;;;;13.73;3.45;;;;;;;;;;4969901;28;20019;-66
2023/10/11 11:42:07;;;;;;;17.58;3.75;;;;;;;;;;4886833;29;20043;-66
2023/10/11 11:44:33;;;;;;;14.05;3.35;;;;;;;;;;4889413;29;20029;-65
2023/10/11 11:47:06;;;;;;;14.48;3.47;;;;;;;;;;4889765;29;20044;-67
2023/10/11 11:49:33;;;;;;;12.40;3.63;;;;;;;;;;4885861;29;20028;-68
2023/10/11 11:51:58;;;;;;;15.90;4.10;;;;;;;;;;4884469;29;20145;-66
2023/10/11 11:54:28;;;;;;;14.38;3.72;;;;;;;;;;4890529;29;20115;-66
2023/10/11 11:56:54;;;;;;;9.95;3.20;;;;;;;;;;4889759;29;20098;-66
2023/10/11 11:59:20;;;;;;;15.35;3.88;;;;;;;;;;4892536;29;20445;-65
2023/10/11 12:01:49;;;;;;;17.83;4.10;;;;;;;;;;4890102;29;20036;-65
2023/10/11 12:04:19;;;;;;;12.65;3.75;;;;;;;;;;4889572;29;20431;-65
2023/10/11 12:06:46;;;;;;;13.93;4.03;;;;;;;;;;4888161;29;20420;-67
2023/10/11 12:09:19;;;;;;;14.13;3.33;;;;;;;;;;4892673;29;20575;-66
2023/10/11 12:11:45;;;;;;;15.27;4.05;;;;;;;;;;4881884;28;20111;-67
2023/10/11 12:14:12;;;;;;;12.00;3.47;;;;;;;;;;4949036;28;20129;-67
2023/10/11 12:16:42;;;;;;;11.30;3.38;;;;;;;;;;4946455;28;20011;-67
2023/10/11 12:19:11;;;;;;;10.65;3.42;;;;;;;;;;4948440;28;20042;-67
2023/10/11 12:21:36;;;;;;;10.27;3.28;;;;;;;;;;4949369;28;20089;-68
2023/10/11 12:24:10;;;;;;;13.82;4.05;;;;;;;;;;4946159;28;20483;-64
2023/10/11 12:26:35;;;;;;;15.65;4.30;;;;;;;;;;4947326;28;20529;-67
2023/10/11 12:29:04;;;;;;;14.20;3.83;;;;;;;;;;4944724;28;20027;-66
2023/10/11 12:31:29;;;;;;;11.05;4.57;;;;;;;;;;4952981;28;20112;-68
2023/10/11 12:33:54;;;;;;;13.63;4.03;;;;;;;;;;4953849;28;20125;-68
2023/10/11 12:36:20;;;;;;;24.13;4.07;;;;;;;;;;4952366;28;20126;-67
2023/10/11 12:38:47;;;;;;;13.60;3.72;;;;;;;;;;4965624;28;20257;-66
2023/10/11 12:41:15;;;;;;;15.80;3.72;;;;;;;;;;4972243;28;20474;-68
2023/10/11 12:43:40;;;;;;;10.33;4.03;;;;;;;;;;4965527;28;20023;-66
2023/10/11 12:46:05;;;;;;;13.40;3.67;;;;;;;;;;4967511;28;20026;-67
2023/10/11 12:48:31;;;;;;;13.75;3.97;;;;;;;;;;4973256;28;20031;-64
2023/10/11 12:50:59;;;;;;;7.97;3.50;;;;;;;;;;4969384;28;20021;-67
2023/10/11 12:53:28;;;;;;;15.18;4.15;;;;;;;;;;4972902;28;20074;-67
2023/10/11 12:55:54;;;;;;;13.57;3.78;;;;;;;;;;4971993;28;20023;-67
2023/10/11 12:58:19;;;;;;;11.20;3.70;;;;;;;;;;4977314;28;20030;-65
2023/10/11 13:00:48;;;;;;;14.10;3.58;;;;;;;;;;4973046;28;20018;-65
2023/10/11 13:03:26;;;;;;;13.73;3.88;;;;;;;;;;4972385;28;20490;-64
2023/10/11 13:05:52;;;;;;;13.70;3.67;;;;;;;;;;4975117;28;20027;-66
2023/10/11 13:08:17;;;;;;;11.35;3.70;;;;;;;;;;4976761;28;20015;-64
2023/10/11 13:10:46;;;;;;;12.15;3.88;;;;;;;;;;4972132;28;20177;-64
2023/10/11 13:13:13;;;;;;;17.98;3.50;;;;;;;;;;4973537;28;20057;-66
2023/10/11 13:15:39;;;;;;;13.70;3.38;;;;;;;;;;4972115;28;20033;-63
2023/10/11 13:18:09;;;;;;;17.10;3.25;;;;;;;;;;4973231;28;20058;-65
2023/10/11 13:20:35;;;;;;;14.95;3.63;;;;;;;;;;4970663;28;20027;-64
2023/10/11 13:23:01;;;;;;;11.48;3.03;;;;;;;;;;4993877;23;20449;-66
2023/10/11 13:25:27;;;;;;;17.17;4.18;;;;;;;;;;5012427;28;20013;-67
2023/10/11 13:27:54;;;;;;;17.77;3.10;;;;;;;;;;5008181;28;20040;-68
2023/10/11 13:30:22;;;;;;;13.82;3.05;;;;;;;;;;5007969;28;20034;-67
2023/10/11 13:32:48;;;;;;;10.82;4.43;;;;;;;;;;5013191;28;20049;-68
2023/10/11 13:35:13;;;;;;;9.73;3.08;;;;;;;;;;5013386;28;20030;-67
2023/10/11 13:37:46;;;;;;;12.07;3.38;;;;;;;;;;5011507;28;20060;-68
2023/10/11 13:40:11;;;;;;;10.30;3.30;;;;;;;;;;5010811;28;20018;-69
2023/10/11 13:42:37;;;;;;;11.68;3.00;;;;;;;;;;5012437;28;20084;-67
2023/10/11 13:45:03;;;;;;;19.55;4.05;;;;;;;;;;5010239;28;20468;-68
2023/10/11 13:47:33;;;;;;;17.40;3.88;;;;;;;;;;5009658;28;20018;-68
2023/10/11 13:49:59;;;;;;;9.52;3.00;;;;;;;;;;5010404;28;20081;-68
2023/10/11 13:52:24;;;;;;;11.20;3.60;;;;;;;;;;5009247;28;20025;-68
2023/10/11 13:54:51;;;;;;;13.02;3.10;;;;;;;;;;5009283;28;20820;-68
2023/10/11 13:57:21;;;;;;;17.00;3.50;;;;;;;;;;5011115;28;20022;-66
2023/10/11 13:59:47;;;;;;;10.25;2.78;;;;;;;;;;5012869;28;20505;-65
2023/10/11 14:04:55;;;;;;;14.80;3.15;;;;;;;;;;5011481;28;20021;-67
2023/10/11 14:07:27;;;;;;;9.77;3.00;;;;;;;;;;5010725;28;20036;-68
2023/10/11 14:09:54;;;;;;;16.10;4.60;;;;;;;;;;4990898;28;20402;-67
2023/10/11 14:12:27;;;;;;;9.20;3.03;;;;;;;;;;5006460;28;20406;-65
2023/10/11 14:14:53;;;;;;;13.73;3.15;;;;;;;;;;5008879;28;20021;-67
2023/10/11 14:17:24;;;;;;;14.95;3.90;;;;;;;;;;5011543;28;20018;-68
2023/10/11 14:19:51;;;;;;;8.60;2.72;;;;;;;;;;5011623;28;20036;-69
2023/10/11 14:22:16;;;;;;;14.75;3.25;;;;;;;;;;5010112;28;20543;-67
2023/10/11 14:24:42;;;;;;;11.70;3.10;;;;;;;;;;5007361;28;20061;-69
2023/10/11 14:27:08;;;;;;;16.33;3.13;;;;;;;;;;5006740;28;20026;-67
2023/10/11 14:29:33;;;;;;;15.40;3.88;;;;;;;;;;5005611;28;20026;-68
2023/10/11 14:31:58;;;;;;;13.98;2.50;;;;;;;;;;5008251;28;20026;-68
2023/10/11 14:34:24;;;;;;;15.73;4.07;;;;;;;;;;5007677;28;20013;-68
2023/10/11 14:36:50;;;;;;;16.17;3.75;;;;;;;;;;5007237;28;20275;-68
2023/10/11 14:39:18;;;;;;;15.10;3.30;;;;;;;;;;5007503;28;20048;-68
2023/10/11 14:41:45;;;;;;;11.45;3.10;;;;;;;;;;5011435;28;20022;-67
2023/10/11 14:44:13;;;;;;;11.75;2.83;;;;;;;;;;5008101;28;20029;-66
2023/10/11 14:46:39;;;;;;;14.38;3.92;;;;;;;;;;5009338;28;20092;-67
2023/10/11 14:49:04;;;;;;;12.20;3.00;;;;;;;;;;4998029;28;20030;-67
2023/10/11 14:51:30;;;;;;;10.45;2.95;;;;;;;;;;5002322;28;20068;-68
2023/10/11 14:53:55;;;;;;;12.25;3.30;;;;;;;;;;5002011;28;20018;-68
2023/10/11 14:56:20;;;;;;;14.97;3.10;;;;;;;;;;5003744;28;20107;-66
2023/10/11 14:58:48;;;;;;;8.38;2.97;;;;;;;;;;5005417;28;20396;-68
2023/10/11 15:01:14;;;;;;;9.88;3.17;;;;;;;;;;5002785;28;20021;-67
2023/10/11 15:03:39;;;;;;;14.68;3.53;;;;;;;;;;5002833;28;20045;-67
2023/10/11 15:06:13;;;;;;;7.63;2.85;;;;;;;;;;5000968;28;20042;-67
2023/10/11 15:08:41;;;;;;;10.10;3.40;;;;;;;;;;5004496;28;20061;-67
2023/10/11 15:11:06;;;;;;;22.98;3.78;;;;;;;;;;5009058;28;20432;-68
2023/10/11 15:13:33;;;;;;;12.73;3.47;;;;;;;;;;5003257;28;20089;-68
2023/10/11 15:15:58;;;;;;;12.43;3.17;;;;;;;;;;5010905;28;20015;-69
2023/10/11 15:18:23;;;;;;;13.18;3.60;;;;;;;;;;5008483;28;20032;-66
2023/10/11 15:20:48;;;;;;;12.70;3.30;;;;;;;;;;4987059;28;20014;-68
2023/10/11 15:23:14;;;;;;;18.27;3.88;;;;;;;;;;5003139;28;20102;-67
2023/10/11 15:25:40;;;;;;;15.77;3.20;;;;;;;;;;5003741;28;20105;-69
2023/10/11 15:28:06;;;;;;;8.93;3.33;;;;;;;;;;4985672;28;20022;-67
2023/10/11 15:30:31;;;;;;;10.05;3.20;;;;;;;;;;5005424;28;20029;-67